sensor_id;sensor_type;location;lat;lon;timestamp;P1;durP1;ratioP1;P2;durP2;ratioP2
76708;SDS011;74360;44.410;0.216;2024-02-26T00:02:26;12.30;;;2.50;;
76708;SDS011;74360;44.410;0.216;2024-02-26T00:07:59;15.67;;;2.17;;
76708;SDS011;74360;44.410;0.216;2024-02-26T00:13:30;17.97;;;2.03;;
76708;SDS011;74360;44.410;0.216;2024-02-26T00:19:03;12.87;;;2.03;;
76708;SDS011;74360;44.410;0.216;2024-02-26T00:24:35;13.50;;;1.93;;
76708;SDS011;74360;44.410;0.216;2024-02-26T00:30:09;14.57;;;1.73;;
76708;SDS011;74360;44.410;0.216;2024-02-26T00:35:41;21.60;;;2.20;;
76708;SDS011;74360;44.410;0.216;2024-02-26T00:41:14;12.20;;;1.63;;
76708;SDS011;74360;44.410;0.216;2024-02-26T00:46:47;12.03;;;2.33;;
76708;SDS011;74360;44.410;0.216;2024-02-26T00:52:19;22.73;;;3.00;;
76708;SDS011;74360;44.410;0.216;2024-02-26T00:57:52;18.03;;;2.40;;
76708;SDS011;74360;44.410;0.216;2024-02-26T01:03:25;22.80;;;2.60;;
76708;SDS011;74360;44.410;0.216;2024-02-26T01:08:56;18.00;;;2.30;;
76708;SDS011;74360;44.410;0.216;2024-02-26T01:14:30;20.33;;;2.70;;
76708;SDS011;74360;44.410;0.216;2024-02-26T01:20:03;20.27;;;2.67;;
76708;SDS011;74360;44.410;0.216;2024-02-26T01:31:09;19.03;;;2.70;;
76708;SDS011;74360;44.410;0.216;2024-02-26T01:36:39;20.17;;;2.47;;
76708;SDS011;74360;44.410;0.216;2024-02-26T01:47:42;11.70;;;1.57;;
76708;SDS011;74360;44.410;0.216;2024-02-26T01:53:16;18.63;;;2.87;;
76708;SDS011;74360;44.410;0.216;2024-02-26T01:58:49;18.17;;;2.47;;
76708;SDS011;74360;44.410;0.216;2024-02-26T02:04:22;17.90;;;2.50;;
76708;SDS011;74360;44.410;0.216;2024-02-26T02:09:53;15.40;;;1.73;;
76708;SDS011;74360;44.410;0.216;2024-02-26T02:15:25;11.73;;;1.67;;
76708;SDS011;74360;44.410;0.216;2024-02-26T02:26:31;15.10;;;1.90;;
76708;SDS011;74360;44.410;0.216;2024-02-26T02:37:38;12.73;;;1.77;;
76708;SDS011;74360;44.410;0.216;2024-02-26T02:43:09;18.03;;;2.20;;
76708;SDS011;74360;44.410;0.216;2024-02-26T02:48:42;14.97;;;1.90;;
76708;SDS011;74360;44.410;0.216;2024-02-26T02:54:15;14.97;;;2.07;;
76708;SDS011;74360;44.410;0.216;2024-02-26T03:05:21;14.07;;;1.90;;
76708;SDS011;74360;44.410;0.216;2024-02-26T03:10:54;15.17;;;2.03;;
76708;SDS011;74360;44.410;0.216;2024-02-26T03:16:27;12.27;;;2.10;;
76708;SDS011;74360;44.410;0.216;2024-02-26T03:21:58;17.57;;;2.70;;
76708;SDS011;74360;44.410;0.216;2024-02-26T03:27:31;12.20;;;1.93;;
76708;SDS011;74360;44.410;0.216;2024-02-26T03:33:04;11.53;;;1.57;;
76708;SDS011;74360;44.410;0.216;2024-02-26T03:38:35;16.40;;;2.77;;
76708;SDS011;74360;44.410;0.216;2024-02-26T03:44:08;14.37;;;1.93;;
76708;SDS011;74360;44.410;0.216;2024-02-26T03:49:41;12.80;;;1.87;;
76708;SDS011;74360;44.410;0.216;2024-02-26T03:55:12;18.27;;;2.67;;
76708;SDS011;74360;44.410;0.216;2024-02-26T04:00:45;14.07;;;1.97;;
76708;SDS011;74360;44.410;0.216;2024-02-26T04:06:20;25.50;;;3.43;;
76708;SDS011;74360;44.410;0.216;2024-02-26T04:11:50;23.63;;;3.03;;
76708;SDS011;74360;44.410;0.216;2024-02-26T04:17:24;22.43;;;3.43;;
76708;SDS011;74360;44.410;0.216;2024-02-26T04:22:57;25.27;;;2.93;;
76708;SDS011;74360;44.410;0.216;2024-02-26T04:28:31;19.90;;;2.60;;
76708;SDS011;74360;44.410;0.216;2024-02-26T04:34:03;17.80;;;2.67;;
76708;SDS011;74360;44.410;0.216;2024-02-26T04:50:40;16.10;;;2.17;;
76708;SDS011;74360;44.410;0.216;2024-02-26T04:56:13;16.73;;;2.03;;
76708;SDS011;74360;44.410;0.216;2024-02-26T05:01:46;15.87;;;2.87;;
76708;SDS011;74360;44.410;0.216;2024-02-26T05:07:18;16.97;;;2.77;;
76708;SDS011;74360;44.410;0.216;2024-02-26T05:12:50;14.10;;;2.03;;
76708;SDS011;74360;44.410;0.216;2024-02-26T05:18:23;11.83;;;1.87;;
76708;SDS011;74360;44.410;0.216;2024-02-26T05:29:27;11.80;;;1.93;;
76708;SDS011;74360;44.410;0.216;2024-02-26T05:34:59;16.00;;;2.50;;
76708;SDS011;74360;44.410;0.216;2024-02-26T05:40:32;10.67;;;1.70;;
76708;SDS011;74360;44.410;0.216;2024-02-26T05:46:05;12.90;;;1.80;;
76708;SDS011;74360;44.410;0.216;2024-02-26T05:51:37;18.50;;;2.40;;
76708;SDS011;74360;44.410;0.216;2024-02-26T05:57:11;12.33;;;2.13;;
76708;SDS011;74360;44.410;0.216;2024-02-26T06:02:42;10.27;;;2.30;;
76708;SDS011;74360;44.410;0.216;2024-02-26T06:08:14;15.90;;;1.97;;
76708;SDS011;74360;44.410;0.216;2024-02-26T06:13:47;12.83;;;3.10;;
76708;SDS011;74360;44.410;0.216;2024-02-26T06:19:21;15.20;;;2.50;;
76708;SDS011;74360;44.410;0.216;2024-02-26T06:24:54;15.23;;;2.33;;
76708;SDS011;74360;44.410;0.216;2024-02-26T06:30:26;12.93;;;1.90;;
76708;SDS011;74360;44.410;0.216;2024-02-26T06:35:58;9.10;;;1.50;;
76708;SDS011;74360;44.410;0.216;2024-02-26T06:41:31;14.80;;;2.33;;
76708;SDS011;74360;44.410;0.216;2024-02-26T06:47:04;11.73;;;2.07;;
76708;SDS011;74360;44.410;0.216;2024-02-26T06:52:35;11.80;;;1.80;;
76708;SDS011;74360;44.410;0.216;2024-02-26T07:03:40;11.17;;;1.97;;
76708;SDS011;74360;44.410;0.216;2024-02-26T07:09:12;17.80;;;2.70;;
76708;SDS011;74360;44.410;0.216;2024-02-26T07:14:44;15.10;;;2.47;;
76708;SDS011;74360;44.410;0.216;2024-02-26T07:25:53;19.50;;;2.43;;
76708;SDS011;74360;44.410;0.216;2024-02-26T07:31:23;13.90;;;2.77;;
76708;SDS011;74360;44.410;0.216;2024-02-26T07:36:56;12.03;;;1.70;;
76708;SDS011;74360;44.410;0.216;2024-02-26T07:42:29;15.10;;;2.17;;
76708;SDS011;74360;44.410;0.216;2024-02-26T07:48:01;11.73;;;1.70;;
76708;SDS011;74360;44.410;0.216;2024-02-26T07:53:34;20.97;;;4.27;;
76708;SDS011;74360;44.410;0.216;2024-02-26T07:59:08;16.60;;;2.33;;
76708;SDS011;74360;44.410;0.216;2024-02-26T08:04:41;16.80;;;2.77;;
76708;SDS011;74360;44.410;0.216;2024-02-26T08:10:13;22.23;;;3.70;;
76708;SDS011;74360;44.410;0.216;2024-02-26T08:15:45;19.93;;;2.77;;
76708;SDS011;74360;44.410;0.216;2024-02-26T08:21:19;18.00;;;2.70;;
76708;SDS011;74360;44.410;0.216;2024-02-26T08:26:53;14.50;;;3.10;;
76708;SDS011;74360;44.410;0.216;2024-02-26T08:32:25;15.03;;;2.83;;
76708;SDS011;74360;44.410;0.216;2024-02-26T08:37:57;15.30;;;2.97;;
76708;SDS011;74360;44.410;0.216;2024-02-26T08:49:03;18.10;;;2.30;;
76708;SDS011;74360;44.410;0.216;2024-02-26T08:54:35;15.27;;;2.80;;
76708;SDS011;74360;44.410;0.216;2024-02-26T09:00:07;16.33;;;2.40;;
76708;SDS011;74360;44.410;0.216;2024-02-26T09:05:39;20.37;;;2.27;;
76708;SDS011;74360;44.410;0.216;2024-02-26T09:11:13;11.83;;;2.30;;
76708;SDS011;74360;44.410;0.216;2024-02-26T09:16:45;13.13;;;1.80;;
76708;SDS011;74360;44.410;0.216;2024-02-26T09:22:18;20.97;;;2.63;;
76708;SDS011;74360;44.410;0.216;2024-02-26T09:27:51;12.67;;;1.87;;
76708;SDS011;74360;44.410;0.216;2024-02-26T09:33:24;18.70;;;2.27;;
76708;SDS011;74360;44.410;0.216;2024-02-26T09:38:57;9.43;;;2.20;;
76708;SDS011;74360;44.410;0.216;2024-02-26T09:44:31;19.80;;;2.47;;
76708;SDS011;74360;44.410;0.216;2024-02-26T09:50:03;7.47;;;1.20;;
76708;SDS011;74360;44.410;0.216;2024-02-26T09:55:35;15.73;;;1.50;;
76708;SDS011;74360;44.410;0.216;2024-02-26T10:01:08;12.33;;;1.83;;
76708;SDS011;74360;44.410;0.216;2024-02-26T10:06:40;10.07;;;1.60;;
76708;SDS011;74360;44.410;0.216;2024-02-26T10:12:13;10.17;;;1.30;;
76708;SDS011;74360;44.410;0.216;2024-02-26T10:17:44;7.23;;;1.60;;
76708;SDS011;74360;44.410;0.216;2024-02-26T10:23:16;14.07;;;1.83;;
76708;SDS011;74360;44.410;0.216;2024-02-26T10:28:49;9.73;;;1.83;;
76708;SDS011;74360;44.410;0.216;2024-02-26T10:34:23;9.87;;;1.70;;
76708;SDS011;74360;44.410;0.216;2024-02-26T10:39:55;8.10;;;1.13;;
76708;SDS011;74360;44.410;0.216;2024-02-26T10:45:28;10.70;;;1.60;;
76708;SDS011;74360;44.410;0.216;2024-02-26T10:51:00;11.30;;;1.80;;
76708;SDS011;74360;44.410;0.216;2024-02-26T10:56:34;10.10;;;1.60;;
76708;SDS011;74360;44.410;0.216;2024-02-26T11:02:07;10.60;;;1.57;;
76708;SDS011;74360;44.410;0.216;2024-02-26T11:07:40;7.73;;;1.60;;
76708;SDS011;74360;44.410;0.216;2024-02-26T11:13:13;8.77;;;1.53;;
76708;SDS011;74360;44.410;0.216;2024-02-26T11:18:44;7.87;;;1.30;;
76708;SDS011;74360;44.410;0.216;2024-02-26T11:29:51;8.30;;;1.30;;
76708;SDS011;74360;44.410;0.216;2024-02-26T11:35:22;9.93;;;1.90;;
76708;SDS011;74360;44.410;0.216;2024-02-26T11:40:56;8.83;;;1.30;;
76708;SDS011;74360;44.410;0.216;2024-02-26T11:46:30;6.40;;;1.10;;
76708;SDS011;74360;44.410;0.216;2024-02-26T11:52:05;7.67;;;1.23;;
76708;SDS011;74360;44.410;0.216;2024-02-26T11:57:38;4.70;;;0.93;;
76708;SDS011;74360;44.410;0.216;2024-02-26T12:03:08;8.10;;;1.30;;
76708;SDS011;74360;44.410;0.216;2024-02-26T12:08:39;11.27;;;1.70;;
76708;SDS011;74360;44.410;0.216;2024-02-26T12:14:13;5.00;;;1.40;;
76708;SDS011;74360;44.410;0.216;2024-02-26T12:19:45;4.87;;;1.60;;
76708;SDS011;74360;44.410;0.216;2024-02-26T12:25:22;8.73;;;1.63;;
76708;SDS011;74360;44.410;0.216;2024-02-26T12:30:51;6.67;;;1.30;;
76708;SDS011;74360;44.410;0.216;2024-02-26T12:36:24;6.27;;;1.20;;
76708;SDS011;74360;44.410;0.216;2024-02-26T12:41:59;5.53;;;1.00;;
76708;SDS011;74360;44.410;0.216;2024-02-26T12:47:31;3.23;;;0.60;;
76708;SDS011;74360;44.410;0.216;2024-02-26T12:53:04;6.60;;;1.77;;
76708;SDS011;74360;44.410;0.216;2024-02-26T12:58:36;4.57;;;0.80;;
76708;SDS011;74360;44.410;0.216;2024-02-26T13:04:09;5.50;;;0.80;;
76708;SDS011;74360;44.410;0.216;2024-02-26T13:09:41;7.40;;;1.40;;
76708;SDS011;74360;44.410;0.216;2024-02-26T13:15:15;9.20;;;1.77;;
76708;SDS011;74360;44.410;0.216;2024-02-26T13:20:47;12.50;;;2.20;;
76708;SDS011;74360;44.410;0.216;2024-02-26T13:26:21;8.57;;;2.37;;
76708;SDS011;74360;44.410;0.216;2024-02-26T13:31:54;7.40;;;1.60;;
76708;SDS011;74360;44.410;0.216;2024-02-26T13:37:25;4.50;;;1.53;;
76708;SDS011;74360;44.410;0.216;2024-02-26T13:42:58;6.17;;;1.20;;
76708;SDS011;74360;44.410;0.216;2024-02-26T13:48:30;2.30;;;0.83;;
76708;SDS011;74360;44.410;0.216;2024-02-26T13:54:03;4.13;;;1.20;;
76708;SDS011;74360;44.410;0.216;2024-02-26T13:59:35;3.20;;;0.80;;
76708;SDS011;74360;44.410;0.216;2024-02-26T14:05:09;4.57;;;1.07;;
76708;SDS011;74360;44.410;0.216;2024-02-26T14:10:41;2.00;;;0.60;;
76708;SDS011;74360;44.410;0.216;2024-02-26T14:16:15;4.23;;;0.90;;
76708;SDS011;74360;44.410;0.216;2024-02-26T14:27:22;2.97;;;0.73;;
76708;SDS011;74360;44.410;0.216;2024-02-26T14:32:52;5.43;;;0.70;;
76708;SDS011;74360;44.410;0.216;2024-02-26T14:38:25;2.70;;;0.93;;
76708;SDS011;74360;44.410;0.216;2024-02-26T14:43:57;3.67;;;0.70;;
76708;SDS011;74360;44.410;0.216;2024-02-26T14:49:32;3.83;;;1.13;;
76708;SDS011;74360;44.410;0.216;2024-02-26T14:55:02;5.07;;;1.10;;
76708;SDS011;74360;44.410;0.216;2024-02-26T15:00:36;3.37;;;0.87;;
76708;SDS011;74360;44.410;0.216;2024-02-26T15:06:08;3.83;;;1.03;;
76708;SDS011;74360;44.410;0.216;2024-02-26T15:11:39;4.03;;;1.03;;
76708;SDS011;74360;44.410;0.216;2024-02-26T15:17:13;3.93;;;1.20;;
76708;SDS011;74360;44.410;0.216;2024-02-26T15:22:45;4.03;;;1.10;;
76708;SDS011;74360;44.410;0.216;2024-02-26T15:28:17;4.57;;;1.33;;
76708;SDS011;74360;44.410;0.216;2024-02-26T15:33:49;4.33;;;1.53;;
76708;SDS011;74360;44.410;0.216;2024-02-26T15:39:21;4.37;;;1.70;;
76708;SDS011;74360;44.410;0.216;2024-02-26T15:44:53;6.53;;;1.77;;
76708;SDS011;74360;44.410;0.216;2024-02-26T15:50:27;7.30;;;1.90;;
76708;SDS011;74360;44.410;0.216;2024-02-26T15:56:00;5.80;;;1.80;;
76708;SDS011;74360;44.410;0.216;2024-02-26T16:01:32;4.77;;;1.60;;
76708;SDS011;74360;44.410;0.216;2024-02-26T16:07:09;6.40;;;1.60;;
76708;SDS011;74360;44.410;0.216;2024-02-26T16:12:38;4.50;;;1.50;;
76708;SDS011;74360;44.410;0.216;2024-02-26T16:18:09;5.60;;;1.60;;
76708;SDS011;74360;44.410;0.216;2024-02-26T16:23:42;4.57;;;1.20;;
76708;SDS011;74360;44.410;0.216;2024-02-26T16:29:16;5.70;;;1.60;;
76708;SDS011;74360;44.410;0.216;2024-02-26T16:34:48;3.90;;;1.60;;
76708;SDS011;74360;44.410;0.216;2024-02-26T16:40:21;4.40;;;1.30;;
76708;SDS011;74360;44.410;0.216;2024-02-26T16:45:53;7.10;;;1.07;;
76708;SDS011;74360;44.410;0.216;2024-02-26T16:51:25;3.43;;;1.23;;
76708;SDS011;74360;44.410;0.216;2024-02-26T16:56:59;7.33;;;1.80;;
76708;SDS011;74360;44.410;0.216;2024-02-26T17:02:31;4.10;;;1.30;;
76708;SDS011;74360;44.410;0.216;2024-02-26T17:08:03;5.73;;;1.60;;
76708;SDS011;74360;44.410;0.216;2024-02-26T17:13:36;6.00;;;1.87;;
76708;SDS011;74360;44.410;0.216;2024-02-26T17:19:07;6.20;;;2.50;;
76708;SDS011;74360;44.410;0.216;2024-02-26T17:24:41;7.13;;;2.40;;
76708;SDS011;74360;44.410;0.216;2024-02-26T17:30:13;7.93;;;1.90;;
76708;SDS011;74360;44.410;0.216;2024-02-26T17:35:46;8.67;;;1.73;;
76708;SDS011;74360;44.410;0.216;2024-02-26T17:41:19;5.87;;;1.60;;
76708;SDS011;74360;44.410;0.216;2024-02-26T17:46:51;6.27;;;1.80;;
76708;SDS011;74360;44.410;0.216;2024-02-26T17:52:23;4.60;;;1.73;;
76708;SDS011;74360;44.410;0.216;2024-02-26T17:57:56;3.93;;;1.40;;
76708;SDS011;74360;44.410;0.216;2024-02-26T18:03:28;5.90;;;2.20;;
76708;SDS011;74360;44.410;0.216;2024-02-26T18:09:02;6.10;;;1.93;;
76708;SDS011;74360;44.410;0.216;2024-02-26T18:14:35;6.63;;;2.63;;
76708;SDS011;74360;44.410;0.216;2024-02-26T18:20:08;7.17;;;2.30;;
76708;SDS011;74360;44.410;0.216;2024-02-26T18:25:40;4.27;;;1.73;;
76708;SDS011;74360;44.410;0.216;2024-02-26T18:31:13;4.20;;;1.70;;
76708;SDS011;74360;44.410;0.216;2024-02-26T18:36:45;3.30;;;1.27;;
76708;SDS011;74360;44.410;0.216;2024-02-26T18:47:51;5.90;;;2.17;;
76708;SDS011;74360;44.410;0.216;2024-02-26T18:53:23;5.33;;;2.30;;
76708;SDS011;74360;44.410;0.216;2024-02-26T18:58:55;5.73;;;2.37;;
76708;SDS011;74360;44.410;0.216;2024-02-26T19:04:30;5.03;;;2.00;;
76708;SDS011;74360;44.410;0.216;2024-02-26T19:10:00;4.90;;;1.90;;
76708;SDS011;74360;44.410;0.216;2024-02-26T19:15:34;4.60;;;1.77;;
76708;SDS011;74360;44.410;0.216;2024-02-26T19:21:05;5.17;;;1.67;;
76708;SDS011;74360;44.410;0.216;2024-02-26T19:26:39;3.87;;;1.40;;
76708;SDS011;74360;44.410;0.216;2024-02-26T19:32:11;3.27;;;1.00;;
76708;SDS011;74360;44.410;0.216;2024-02-26T19:37:41;3.93;;;1.40;;
76708;SDS011;74360;44.410;0.216;2024-02-26T19:48:47;3.10;;;0.83;;
76708;SDS011;74360;44.410;0.216;2024-02-26T19:54:20;3.17;;;1.30;;
76708;SDS011;74360;44.410;0.216;2024-02-26T20:05:27;3.73;;;1.47;;
76708;SDS011;74360;44.410;0.216;2024-02-26T20:10:59;5.27;;;1.60;;
76708;SDS011;74360;44.410;0.216;2024-02-26T20:27:39;1.93;;;0.80;;
76708;SDS011;74360;44.410;0.216;2024-02-26T20:33:10;2.20;;;1.23;;
76708;SDS011;74360;44.410;0.216;2024-02-26T20:38:43;1.53;;;0.80;;
76708;SDS011;74360;44.410;0.216;2024-02-26T20:44:15;4.43;;;1.70;;
76708;SDS011;74360;44.410;0.216;2024-02-26T20:49:49;5.07;;;1.30;;
76708;SDS011;74360;44.410;0.216;2024-02-26T20:55:22;5.00;;;1.93;;
76708;SDS011;74360;44.410;0.216;2024-02-26T21:06:26;4.77;;;1.60;;
76708;SDS011;74360;44.410;0.216;2024-02-26T21:11:59;5.33;;;1.80;;
76708;SDS011;74360;44.410;0.216;2024-02-26T21:17:33;4.30;;;1.40;;
76708;SDS011;74360;44.410;0.216;2024-02-26T21:23:09;4.17;;;1.60;;
76708;SDS011;74360;44.410;0.216;2024-02-26T21:28:41;4.20;;;1.30;;
76708;SDS011;74360;44.410;0.216;2024-02-26T21:34:14;3.30;;;1.00;;
76708;SDS011;74360;44.410;0.216;2024-02-26T21:39:46;2.03;;;1.00;;
76708;SDS011;74360;44.410;0.216;2024-02-26T21:45:21;1.93;;;1.00;;
76708;SDS011;74360;44.410;0.216;2024-02-26T21:50:54;2.97;;;1.03;;
76708;SDS011;74360;44.410;0.216;2024-02-26T21:56:24;3.97;;;1.50;;
76708;SDS011;74360;44.410;0.216;2024-02-26T22:01:55;2.80;;;1.33;;
76708;SDS011;74360;44.410;0.216;2024-02-26T22:07:30;3.67;;;1.30;;
76708;SDS011;74360;44.410;0.216;2024-02-26T22:13:03;4.80;;;1.43;;
76708;SDS011;74360;44.410;0.216;2024-02-26T22:18:35;4.57;;;1.90;;
76708;SDS011;74360;44.410;0.216;2024-02-26T22:24:07;4.73;;;2.17;;
76708;SDS011;74360;44.410;0.216;2024-02-26T22:29:39;5.10;;;2.17;;
76708;SDS011;74360;44.410;0.216;2024-02-26T22:35:12;4.80;;;1.93;;
76708;SDS011;74360;44.410;0.216;2024-02-26T22:40:44;5.10;;;1.70;;
76708;SDS011;74360;44.410;0.216;2024-02-26T22:46:17;4.50;;;1.27;;
76708;SDS011;74360;44.410;0.216;2024-02-26T22:51:50;4.37;;;1.93;;
76708;SDS011;74360;44.410;0.216;2024-02-26T22:57:22;6.80;;;2.10;;
76708;SDS011;74360;44.410;0.216;2024-02-26T23:02:55;4.47;;;2.00;;
76708;SDS011;74360;44.410;0.216;2024-02-26T23:08:26;4.43;;;1.90;;
76708;SDS011;74360;44.410;0.216;2024-02-26T23:13:58;4.63;;;2.00;;
76708;SDS011;74360;44.410;0.216;2024-02-26T23:19:33;4.77;;;2.10;;
76708;SDS011;74360;44.410;0.216;2024-02-26T23:25:06;4.67;;;1.97;;
76708;SDS011;74360;44.410;0.216;2024-02-26T23:30:34;5.80;;;2.60;;
76708;SDS011;74360;44.410;0.216;2024-02-26T23:36:08;8.03;;;2.63;;
76708;SDS011;74360;44.410;0.216;2024-02-26T23:41:40;7.87;;;2.57;;
76708;SDS011;74360;44.410;0.216;2024-02-26T23:47:12;6.53;;;2.03;;
76708;SDS011;74360;44.410;0.216;2024-02-26T23:58:20;4.37;;;1.80;;
